createdAt,value
2018-07-23T00:03:33.405Z,9.70
2018-07-23T00:08:37.361Z,9.73
2018-07-23T00:13:41.276Z,9.23
2018-07-23T00:18:45.410Z,9.73
2018-07-23T00:23:49.553Z,9.20
2018-07-23T00:28:53.727Z,10.10
2018-07-23T00:33:57.624Z,9.30
2018-07-23T00:39:01.538Z,9.43
2018-07-23T00:44:05.713Z,9.60
2018-07-23T00:49:09.613Z,8.90
2018-07-23T00:54:13.998Z,9.03
2018-07-23T00:59:17.874Z,9.27
2018-07-23T01:04:21.816Z,9.23
2018-07-23T01:09:25.817Z,9.43
2018-07-23T01:14:29.785Z,9.20
2018-07-23T01:19:33.689Z,9.53
2018-07-23T01:24:37.881Z,9.70
2018-07-23T01:29:42.135Z,9.47
2018-07-23T01:34:46.013Z,9.63
2018-07-23T01:39:50.190Z,8.70
2018-07-23T01:44:54.381Z,9.83
2018-07-23T01:49:58.374Z,9.57
2018-07-23T01:55:02.543Z,9.60
2018-07-23T02:00:06.977Z,9.80
2018-07-23T02:05:11.106Z,9.37
2018-07-23T02:10:15.254Z,9.83
2018-07-23T02:15:19.349Z,9.07
2018-07-23T02:20:23.450Z,10.50
2018-07-23T02:25:27.660Z,9.70
2018-07-23T02:30:31.792Z,9.90
2018-07-23T02:35:36.306Z,9.90
2018-07-23T02:40:40.159Z,10.00
2018-07-23T02:45:44.010Z,9.57
2018-07-23T02:50:47.937Z,9.37
2018-07-23T02:55:52.074Z,9.63
2018-07-23T03:00:55.930Z,9.47
2018-07-23T03:06:00.218Z,9.30
2018-07-23T03:11:04.130Z,9.30
2018-07-23T03:16:07.978Z,9.73
2018-07-23T03:21:11.834Z,9.57
2018-07-23T03:26:16.361Z,9.37
2018-07-23T03:31:20.278Z,9.20
2018-07-23T03:36:24.156Z,10.13
2018-07-23T03:41:28.059Z,9.57
2018-07-23T03:46:31.945Z,10.20
2018-07-23T03:51:35.886Z,9.57
2018-07-23T03:56:40.057Z,9.43
2018-07-23T04:01:43.933Z,9.30
2018-07-23T04:06:49.185Z,10.00
2018-07-23T04:11:53.394Z,9.73
2018-07-23T04:16:57.301Z,10.40
2018-07-23T04:22:01.262Z,10.90
2018-07-23T04:27:05.480Z,9.97
2018-07-23T04:32:09.386Z,9.47
2018-07-23T04:37:13.258Z,9.97
2018-07-23T04:42:17.171Z,9.57
2018-07-23T04:47:21.079Z,9.83
2018-07-23T04:52:24.985Z,10.00
2018-07-23T04:57:28.857Z,10.87
2018-07-23T05:02:35.715Z,10.07
2018-07-23T05:07:39.575Z,9.90
2018-07-23T05:12:43.541Z,10.40
2018-07-23T05:17:47.373Z,9.70
2018-07-23T05:22:51.206Z,10.17
2018-07-23T05:27:55.322Z,10.23
2018-07-23T05:32:59.414Z,10.47
2018-07-23T05:38:03.242Z,9.60
2018-07-23T05:43:07.337Z,9.13
2018-07-23T05:48:11.482Z,9.10
2018-07-23T05:53:15.678Z,8.80
2018-07-23T05:58:19.695Z,8.63
2018-07-23T06:03:24.384Z,9.00
2018-07-23T06:08:28.214Z,9.27
2018-07-23T06:13:32.065Z,8.63
2018-07-23T06:18:35.847Z,8.87
2018-07-23T06:23:39.705Z,11.10
2018-07-23T06:28:43.783Z,9.97
2018-07-23T06:33:47.648Z,10.83
2018-07-23T06:38:51.451Z,11.03
2018-07-23T06:43:55.282Z,11.27
2018-07-23T06:48:59.117Z,11.80
2018-07-23T06:54:03.013Z,12.30
2018-07-23T06:59:06.927Z,11.30
2018-07-23T07:04:10.828Z,12.10
2018-07-23T07:09:14.709Z,13.10
2018-07-23T07:14:18.639Z,12.87
2018-07-23T07:19:22.753Z,14.23
2018-07-23T07:24:26.657Z,11.77
2018-07-23T07:29:30.759Z,12.57
2018-07-23T07:34:34.587Z,12.63
2018-07-23T07:39:38.422Z,11.17
2018-07-23T07:44:42.238Z,9.23
2018-07-23T07:49:46.318Z,10.27
2018-07-23T07:54:50.401Z,12.13
2018-07-23T07:59:54.567Z,10.57
2018-07-23T08:04:58.439Z,9.00
2018-07-23T08:10:02.474Z,8.07
2018-07-23T08:15:06.584Z,9.13
2018-07-23T08:20:10.633Z,10.03
2018-07-23T08:25:14.495Z,8.77
2018-07-23T08:30:18.299Z,9.90
2018-07-23T08:35:22.470Z,7.97
2018-07-23T08:40:26.519Z,8.60
2018-07-23T08:45:30.337Z,8.23
2018-07-23T08:50:34.571Z,7.50
2018-07-23T08:55:38.430Z,7.87
2018-07-23T09:00:42.262Z,7.00
2018-07-23T09:05:46.081Z,8.37
2018-07-23T09:10:49.889Z,8.00
2018-07-23T09:15:53.730Z,9.80
2018-07-23T09:20:57.579Z,8.43
2018-07-23T09:26:01.631Z,6.95
2018-07-23T09:31:05.501Z,7.40
2018-07-23T09:36:09.018Z,6.20
2018-07-23T09:41:12.833Z,7.47
2018-07-23T09:46:16.658Z,7.20
2018-07-23T09:51:20.474Z,7.30
2018-07-23T09:56:24.538Z,7.40
2018-07-23T10:01:28.631Z,6.08
2018-07-23T10:06:32.649Z,7.05
2018-07-23T10:11:36.472Z,8.10
2018-07-23T10:16:40.290Z,6.20
2018-07-23T10:21:44.350Z,5.60
2018-07-23T10:26:48.399Z,6.03
2018-07-23T10:31:52.204Z,7.50
2018-07-23T10:36:56.011Z,6.97
2018-07-23T10:41:59.837Z,7.08
2018-07-23T10:47:03.650Z,6.67
2018-07-23T10:52:07.722Z,6.72
2018-07-23T10:57:12.688Z,6.95
2018-07-23T11:02:16.735Z,7.10
2018-07-23T11:07:20.557Z,6.67
2018-07-23T11:12:24.375Z,7.33
2018-07-23T11:17:28.179Z,7.10
2018-07-23T11:22:32.233Z,9.23
2018-07-23T11:27:36.349Z,6.10
2018-07-23T11:32:40.418Z,5.20
2018-07-23T11:37:44.231Z,8.07
2018-07-23T11:42:48.117Z,6.90
2018-07-23T11:47:51.898Z,7.30
2018-07-23T11:52:55.741Z,7.30
2018-07-23T11:58:00.054Z,6.53
2018-07-23T12:03:03.890Z,6.90
2018-07-23T12:08:07.717Z,6.33
2018-07-23T12:13:11.538Z,5.73
2018-07-23T12:18:15.606Z,5.57
2018-07-23T12:23:19.426Z,6.00
2018-07-23T12:28:23.230Z,6.70
2018-07-23T12:33:27.091Z,6.17
2018-07-23T12:38:30.903Z,5.87
2018-07-23T12:43:34.733Z,5.70
2018-07-23T12:48:38.563Z,5.40
2018-07-23T12:53:42.393Z,5.33
2018-07-23T12:58:46.222Z,5.47
2018-07-23T13:03:50.358Z,6.00
2018-07-23T13:08:54.474Z,5.40
2018-07-23T13:13:58.323Z,6.28
2018-07-23T13:19:02.364Z,6.43
2018-07-23T13:24:06.500Z,6.13
2018-07-23T13:29:10.556Z,6.70
2018-07-23T13:34:14.618Z,5.37
2018-07-23T13:39:18.441Z,6.13
2018-07-23T13:44:22.259Z,6.03
2018-07-23T13:49:26.187Z,6.50
2018-07-23T13:54:29.985Z,7.10
2018-07-23T13:59:33.804Z,7.22
2018-07-23T14:04:37.677Z,6.43
2018-07-23T14:09:41.467Z,5.90
2018-07-23T14:14:45.720Z,6.93
2018-07-23T14:19:49.521Z,6.90
2018-07-23T14:24:53.350Z,6.40
2018-07-23T14:29:57.169Z,5.83
2018-07-23T14:35:01.226Z,6.00
2018-07-23T14:40:05.163Z,5.70
2018-07-23T14:45:08.975Z,5.33
2018-07-23T14:50:13.809Z,5.53
2018-07-23T14:55:17.648Z,6.10
2018-07-23T15:00:21.467Z,6.37
2018-07-23T15:05:25.313Z,6.28
2018-07-23T15:10:29.134Z,6.22
2018-07-23T15:15:33.587Z,6.40
2018-07-23T15:20:37.418Z,6.80
2018-07-23T15:25:41.241Z,7.22
2018-07-23T15:30:45.094Z,6.65
2018-07-23T15:35:49.139Z,6.67
2018-07-23T15:40:52.993Z,5.97
2018-07-23T15:45:57.403Z,5.97
2018-07-23T15:51:01.131Z,6.27
2018-07-23T15:56:04.929Z,6.10
2018-07-23T16:01:08.980Z,6.30
2018-07-23T16:06:13.053Z,6.17
2018-07-23T16:11:17.114Z,5.67
2018-07-23T16:16:20.987Z,5.70
2018-07-23T16:21:25.306Z,5.57
2018-07-23T16:26:29.599Z,5.70
2018-07-23T16:31:33.427Z,5.83
2018-07-23T16:36:37.473Z,6.00
2018-07-23T16:41:41.373Z,5.70
2018-07-23T16:46:45.200Z,5.53
2018-07-23T16:51:49.123Z,5.83
2018-07-23T16:56:52.963Z,5.97
2018-07-23T17:01:56.866Z,5.77
2018-07-23T17:07:00.742Z,5.53
2018-07-23T17:12:05.500Z,5.75
2018-07-23T17:17:09.593Z,5.07
2018-07-23T17:22:13.792Z,4.83
2018-07-23T17:27:17.877Z,5.10
2018-07-23T17:32:22.011Z,4.67
2018-07-23T17:37:25.870Z,5.10
2018-07-23T17:42:29.704Z,4.83
2018-07-23T17:47:33.762Z,4.80
2018-07-23T17:52:37.879Z,5.07
2018-07-23T17:57:41.684Z,5.00
2018-07-23T18:02:45.515Z,4.53
2018-07-23T18:07:49.565Z,5.00
2018-07-23T18:12:53.701Z,4.90
2018-07-23T18:17:57.774Z,5.20
2018-07-23T18:23:02.661Z,5.60
2018-07-23T18:28:06.815Z,5.60
2018-07-23T18:33:10.939Z,6.13
2018-07-23T18:38:15.166Z,5.93
2018-07-23T18:43:19.100Z,6.00
2018-07-23T18:49:38.498Z,5.70
2018-07-23T18:54:43.660Z,6.20
2018-07-23T18:59:47.788Z,5.73
2018-07-23T19:04:51.793Z,5.77
2018-07-23T19:09:55.698Z,6.23
2018-07-23T19:14:59.762Z,6.60
2018-07-23T19:20:03.630Z,6.10
2018-07-23T19:25:07.690Z,6.07
2018-07-23T19:30:11.498Z,6.80
2018-07-23T19:35:15.591Z,6.50
2018-07-23T19:40:20.923Z,7.40
2018-07-23T19:45:24.798Z,7.07
2018-07-23T19:50:28.827Z,7.67
2018-07-23T19:55:32.914Z,7.03
2018-07-23T20:00:36.971Z,7.57
2018-07-23T20:05:40.819Z,7.00
2018-07-23T20:10:44.925Z,7.37
2018-07-23T20:15:48.972Z,7.57
2018-07-23T20:20:53.100Z,7.37
2018-07-23T20:25:57.092Z,7.23
2018-07-23T20:31:00.904Z,8.10
2018-07-23T20:36:05.190Z,8.10
2018-07-23T20:41:09.299Z,8.70
2018-07-23T20:46:13.170Z,9.17
2018-07-23T20:51:17.234Z,7.83
2018-07-23T20:56:21.318Z,8.13
2018-07-23T21:01:25.378Z,9.17
2018-07-23T21:06:29.496Z,8.60
2018-07-23T21:11:33.309Z,8.93
2018-07-23T21:16:37.382Z,9.67
2018-07-23T21:21:41.450Z,8.83
2018-07-23T21:26:45.273Z,10.17
2018-07-23T21:31:49.099Z,9.37
2018-07-23T21:36:53.178Z,9.47
2018-07-23T21:41:57.358Z,10.03
2018-07-23T21:47:01.450Z,10.63
2018-07-23T21:52:05.517Z,10.27
2018-07-23T21:57:09.589Z,11.00
2018-07-23T22:02:13.657Z,11.07
2018-07-23T22:07:17.843Z,11.70
2018-07-23T22:12:21.922Z,11.30
2018-07-23T22:17:25.750Z,11.13
2018-07-23T22:22:29.808Z,11.07
2018-07-23T22:27:33.919Z,11.50
2018-07-23T22:32:37.988Z,11.27
2018-07-23T22:37:42.119Z,11.53
2018-07-23T22:42:46.033Z,11.73
2018-07-23T22:47:50.081Z,11.70
2018-07-23T22:52:53.917Z,12.58
2018-07-23T22:57:57.734Z,12.53
2018-07-23T23:03:01.843Z,12.50
2018-07-23T23:08:05.934Z,13.10
2018-07-23T23:13:10.106Z,12.60
2018-07-23T23:18:13.917Z,13.20
2018-07-23T23:23:18.026Z,12.50
2018-07-23T23:28:22.090Z,13.33
2018-07-23T23:33:26.187Z,12.60
2018-07-23T23:38:30.264Z,13.00
2018-07-23T23:43:34.375Z,13.00
2018-07-23T23:48:38.190Z,13.27
2018-07-23T23:53:42.027Z,14.53
2018-07-23T23:58:46.100Z,13.40
